Time;durP1;ratioP1;P1;durP2;ratioP2;P2;SDS_P1;SDS_P2;PMS_P1;PMS_P2;Temp;Humidity;BMP_temperature;BMP_pressure;BME280_temperature;BME280_humidity;BME280_pressure;Samples;Min_cycle;Max_cycle;Signal;HPM_P1;HPM_P2
2024/03/13 00:00:04;;;;;;;;;;;;;;;12.40;50.00;100724.88;4981398;27;98161;-71
2024/03/13 00:02:35;;;;;;;;;;;;;;;12.39;50.01;100725.97;4986433;27;98938;-72
2024/03/13 00:05:02;;;;;;;;;;;;;;;12.39;49.88;100728.66;4963919;27;98834;-71
2024/03/13 00:07:28;;;;;;;;;;;;;;;12.38;50.03;100730.56;4976888;27;98218;-72
2024/03/13 00:09:57;;;;;;;;;;;;;;;12.38;50.03;100730.56;4983383;27;99583;-72
2024/03/13 00:12:24;;;;;;;;;;;;;;;12.37;49.96;100728.13;4967628;27;98169;-72
2024/03/13 00:14:51;;;;;;;;;;;;;;;12.34;49.72;100734.91;4962974;27;98419;-71
2024/03/13 00:17:21;;;;;;;;;;;;;;;12.34;50.00;100729.50;5003136;27;98052;-72
2024/03/13 00:19:50;;;;;;;;;;;;;;;12.34;50.10;100729.50;4997451;27;98725;-72
2024/03/13 00:22:21;;;;;;;;;;;;;;;12.34;50.00;100734.06;4963465;27;98126;-71
2024/03/13 00:24:51;;;;;;;;;;;;;;;12.33;50.19;100725.16;4987535;27;98533;-72
2024/03/13 00:27:18;;;;;;;;;;;;;;;12.32;49.73;100730.84;4983629;27;98349;-73
2024/03/13 00:29:45;;;;;;;;;;;;;;;12.31;49.95;100727.31;4985090;27;98291;-71
2024/03/13 00:32:12;;;;;;;;;;;;;;;12.32;49.96;100725.44;4966956;27;98124;-72
2024/03/13 00:34:40;;;;;;;;;;;;;;;12.30;49.92;100723.00;4971647;27;98273;-71
2024/03/13 00:37:06;;;;;;;;;;;;;;;12.29;49.89;100713.25;4987359;27;99340;-72
2024/03/13 00:39:32;;;;;;;;;;;;;;;12.29;49.86;100724.06;5001750;27;98416;-72
2024/03/13 00:41:58;;;;;;;;;;;;;;;12.28;49.99;100720.56;4967558;27;98148;-72
2024/03/13 00:44:25;;;;;;;;;;;;;;;12.28;49.80;100717.84;4985875;27;99512;-72
2024/03/13 00:46:51;;;;;;;;;;;;;;;12.27;49.84;100715.44;4964812;27;99202;-71
2024/03/13 00:49:17;;;;;;;;;;;;;;;12.26;50.03;100717.34;4968597;27;98667;-71
2024/03/13 00:51:44;;;;;;;;;;;;;;;12.26;49.82;100728.16;4983480;27;98007;-72
2024/03/13 00:54:11;;;;;;;;;;;;;;;12.25;49.98;100723.81;4997213;27;98486;-72
2024/03/13 00:56:38;;;;;;;;;;;;;;;12.24;50.02;100719.50;4985483;27;98455;-71
2024/03/13 00:59:06;;;;;;;;;;;;;;;12.24;49.94;100719.50;5001906;27;98064;-71
2024/03/13 01:01:32;;;;;;;;;;;;;;;12.24;49.96;100715.97;4981908;27;99392;-72
2024/03/13 01:03:59;;;;;;;;;;;;;;;12.23;50.01;100717.06;4984906;27;98622;-71
2024/03/13 01:06:28;;;;;;;;;;;;;;;12.22;49.91;100718.97;4981429;27;97994;-71
2024/03/13 01:08:58;;;;;;;;;;;;;;;12.22;49.86;100718.13;4972138;27;98261;-71
2024/03/13 01:11:25;;;;;;;;;;;;;;;12.21;49.66;100716.50;4987050;27;98474;-71
2024/03/13 01:13:51;;;;;;;;;;;;;;;12.21;49.87;100711.09;4999748;27;98645;-71
2024/03/13 01:16:18;;;;;;;;;;;;;;;12.19;49.93;100711.41;4982399;27;98188;-71
2024/03/13 01:18:44;;;;;;;;;;;;;;;12.19;49.81;100710.59;4998934;27;99676;-70
2024/03/13 01:21:14;;;;;;;;;;;;;;;12.18;50.07;100707.06;4980809;27;99498;-72
2024/03/13 01:23:40;;;;;;;;;;;;;;;12.18;49.82;100708.94;4970859;27;98567;-72
2024/03/13 01:26:08;;;;;;;;;;;;;;;12.16;49.97;100711.94;4979641;27;98934;-71
2024/03/13 01:28:36;;;;;;;;;;;;;;;12.17;49.97;100707.34;4966329;27;98601;-73
2024/03/13 01:31:07;;;;;;;;;;;;;;;12.15;50.10;100707.63;4984092;27;97969;-72
2024/03/13 01:33:34;;;;;;;;;;;;;;;12.15;49.93;100710.31;4971372;27;98499;-72
2024/03/13 01:36:00;;;;;;;;;;;;;;;12.14;49.99;100711.38;4992575;27;100075;-71
2024/03/13 01:38:27;;;;;;;;;;;;;;;12.14;49.99;100702.47;4963825;27;97904;-72
2024/03/13 02:03:15;;;;;;;;;;;;;;;12.05;50.01;100715.72;4990445;27;98508;-72
2024/03/13 02:05:45;;;;;;;;;;;;;;;12.04;50.18;100714.91;4987073;27;99456;-71
2024/03/13 02:08:14;;;;;;;;;;;;;;;12.03;49.98;100707.09;4983231;27;100426;-71
2024/03/13 02:10:40;;;;;;;;;;;;;;;12.01;49.97;100711.94;4977447;27;97853;-72
2024/03/13 02:13:13;;;;;;;;;;;;;;;11.99;49.88;100711.41;4979846;27;98393;-71
2024/03/13 02:15:41;;;;;;;;;;;;;;;11.98;49.98;100713.28;4986774;27;99845;-72
2024/03/13 02:18:31;;;;;;;;;;;;;;;11.97;50.05;100713.56;4977837;27;98683;-70
2024/03/13 02:21:01;;;;;;;;;;;;;;;11.96;50.03;100718.16;4950302;27;98690;-72
2024/03/13 02:23:28;;;;;;;;;;;;;;;11.94;50.16;100717.59;4979294;27;99106;-72
2024/03/13 02:25:55;;;;;;;;;;;;;;;11.93;50.14;100718.69;4975267;27;98229;-73
2024/03/13 02:28:37;;;;;;;;;;;;;;;11.92;50.06;100722.47;4975399;27;98437;-71
2024/03/13 02:31:07;;;;;;;;;;;;;;;11.89;49.97;100720.31;4962135;28;97877;-72
2024/03/13 02:33:36;;;;;;;;;;;;;;;11.89;50.07;100722.19;4981165;27;98563;-72
2024/03/13 02:36:03;;;;;;;;;;;;;;;11.88;50.27;100723.28;4982628;27;98093;-71
2024/03/13 02:38:29;;;;;;;;;;;;;;;11.87;50.08;100718.94;4985423;27;98548;-72
2024/03/13 02:40:56;;;;;;;;;;;;;;;11.85;49.91;100721.94;4997202;27;98555;-72
2024/03/13 02:43:23;;;;;;;;;;;;;;;11.84;50.01;100719.50;4964392;27;98960;-71
2024/03/13 02:45:49;;;;;;;;;;;;;;;11.83;50.01;100713.31;4978370;27;97956;-72
2024/03/13 02:48:16;;;;;;;;;;;;;;;11.83;50.11;100720.53;4964516;27;97955;-71
2024/03/13 02:50:43;;;;;;;;;;;;;;;11.81;50.08;100707.31;4972705;27;102188;-71
2024/03/13 02:53:10;;;;;;;;;;;;;;;11.81;50.16;100710.00;4970997;27;98630;-72
2024/03/13 02:55:36;;;;;;;;;;;;;;;11.79;50.08;100721.09;4986718;27;100303;-72
2024/03/13 02:58:03;;;;;;;;;;;;;;;11.79;50.04;100712.19;4968394;27;98036;-71
2024/03/13 03:00:29;;;;;;;;;;;;;;;11.77;49.87;100704.34;4966353;27;98149;-72
2024/03/13 03:02:56;;;;;;;;;;;;;;;11.78;50.12;100713.25;4996258;27;98080;-72
2024/03/13 03:05:24;;;;;;;;;;;;;;;11.76;50.06;100710.03;4967001;27;98035;-71
2024/03/13 03:07:53;;;;;;;;;;;;;;;11.75;50.12;100705.69;4979568;27;98333;-73
2024/03/13 03:10:20;;;;;;;;;;;;;;;11.74;50.18;100709.47;4988019;27;97983;-71
2024/03/13 03:12:47;;;;;;;;;;;;;;;11.73;50.07;100713.25;4978563;27;98108;-72
2024/03/13 03:15:13;;;;;;;;;;;;;;;11.73;50.24;100713.25;4998714;27;97963;-72
2024/03/13 03:17:40;;;;;;;;;;;;;;;11.71;49.92;100701.88;4970558;27;97994;-71
2024/03/13 03:20:07;;;;;;;;;;;;;;;11.69;50.18;100712.97;4968243;27;98078;-71
2024/03/13 03:22:34;;;;;;;;;;;;;;;11.68;50.07;100707.84;4984745;27;98319;-71
2024/03/13 03:25:02;;;;;;;;;;;;;;;11.68;50.23;100714.06;4983333;27;98438;-72
2024/03/13 03:27:29;;;;;;;;;;;;;;;11.67;50.09;100711.59;5002308;27;98311;-71
2024/03/13 03:29:55;;;;;;;;;;;;;;;11.66;50.16;100710.00;4997307;27;98842;-71
2024/03/13 03:32:35;;;;;;;;;;;;;;;11.65;50.15;100711.88;4988374;27;98097;-71
2024/03/13 03:35:03;;;;;;;;;;;;;;;11.64;50.10;100706.78;4993512;27;98571;-70
2024/03/13 03:37:29;;;;;;;;;;;;;;;11.62;50.19;100712.41;4972563;27;98135;-71
2024/03/13 03:39:56;;;;;;;;;;;;;;;11.62;49.93;100711.63;5004083;27;98540;-72
2024/03/13 03:42:24;;;;;;;;;;;;;;;11.60;50.05;100711.91;4982850;27;99027;-72
2024/03/13 03:44:50;;;;;;;;;;;;;;;11.59;50.17;100706.75;4970247;27;98406;-71
2024/03/13 03:47:17;;;;;;;;;;;;;;;11.58;50.11;100707.81;4989264;27;98152;-72
2024/03/13 03:49:44;;;;;;;;;;;;;;;11.56;50.31;100702.72;4969414;27;97916;-71
2024/03/13 03:52:11;;;;;;;;;;;;;;;11.54;50.07;100705.66;4983302;27;98126;-72
2024/03/13 03:54:37;;;;;;;;;;;;;;;11.53;50.17;100700.53;4968368;27;98073;-72
2024/03/13 03:57:03;;;;;;;;;;;;;;;11.52;50.20;100704.31;4985782;27;100025;-71
2024/03/13 03:59:30;;;;;;;;;;;;;;;11.50;50.12;100703.75;4971632;27;98313;-71
2024/03/13 04:01:56;;;;;;;;;;;;;;;11.49;50.16;100704.84;4985128;27;98409;-70
2024/03/13 04:04:26;;;;;;;;;;;;;;;11.48;50.15;100711.34;4986857;27;98226;-72
2024/03/13 04:06:52;;;;;;;;;;;;;;;11.45;50.32;100701.88;4973234;27;98048;-72
2024/03/13 04:09:20;;;;;;;;;;;;;;;11.44;50.17;100699.44;4971574;27;98066;-71
2024/03/13 04:11:47;;;;;;;;;;;;;;;11.42;49.99;100707.00;4982240;27;98209;-70
2024/03/13 04:14:13;;;;;;;;;;;;;;;11.40;50.26;100711.84;4968296;27;98187;-72
2024/03/13 04:16:43;;;;;;;;;;;;;;;11.39;50.10;100710.22;4979971;27;98154;-72
2024/03/13 04:19:13;;;;;;;;;;;;;;;11.37;50.28;100715.09;4981951;27;99125;-72
2024/03/13 04:21:40;;;;;;;;;;;;;;;11.36;50.22;100710.75;4994896;27;98148;-71
2024/03/13 04:24:07;;;;;;;;;;;;;;;11.33;50.13;100714.81;4978897;27;98182;-72
2024/03/13 04:26:39;;;;;;;;;;;;;;;11.30;50.24;100721.53;4982686;27;98019;-70
2024/03/13 04:29:05;;;;;;;;;;;;;;;11.30;50.42;100718.84;4986878;27;98154;-72
2024/03/13 04:31:35;;;;;;;;;;;;;;;11.28;50.25;100725.59;4999582;27;98952;-72
2024/03/13 04:34:01;;;;;;;;;;;;;;;11.26;50.40;100717.75;4969120;27;98446;-71
2024/03/13 04:36:28;;;;;;;;;;;;;;;11.25;50.20;100718.03;4957775;27;98789;-72
2024/03/13 04:38:55;;;;;;;;;;;;;;;11.23;50.07;100730.94;4965670;27;97975;-72
2024/03/13 04:41:22;;;;;;;;;;;;;;;11.22;50.11;100721.25;4982046;27;98064;-70
2024/03/13 04:43:49;;;;;;;;;;;;;;;11.21;50.09;100731.22;4970919;27;98194;-72
2024/03/13 04:46:19;;;;;;;;;;;;;;;11.18;50.46;100726.34;4961388;27;98215;-72
2024/03/13 04:48:45;;;;;;;;;;;;;;;11.17;50.03;100735.53;4984713;27;99396;-71
2024/03/13 04:51:16;;;;;;;;;;;;;;;11.15;50.41;100732.28;4982710;27;98981;-70
2024/03/13 04:53:45;;;;;;;;;;;;;;;11.15;50.10;100734.97;4984877;27;98045;-72
2024/03/13 04:56:12;;;;;;;;;;;;;;;11.13;50.24;100731.75;4969180;27;99981;-70
2024/03/13 04:58:39;;;;;;;;;;;;;;;11.11;50.11;100733.88;4983845;27;98070;-71
2024/03/13 05:01:07;;;;;;;;;;;;;;;11.10;50.10;100739.56;4984980;27;98768;-72
2024/03/13 05:03:35;;;;;;;;;;;;;;;11.08;50.43;100739.81;4987295;27;98918;-71
2024/03/13 05:06:02;;;;;;;;;;;;;;;11.07;50.13;100738.19;4998376;27;97852;-71
2024/03/13 05:08:29;;;;;;;;;;;;;;;11.05;50.37;100743.84;4977349;27;98308;-71
2024/03/13 05:10:56;;;;;;;;;;;;;;;11.01;50.38;100740.06;4970375;27;98091;-71
2024/03/13 05:13:23;;;;;;;;;;;;;;;11.01;49.96;100744.66;4966007;27;98359;-70
2024/03/13 05:15:51;;;;;;;;;;;;;;;11.00;50.00;100746.53;4980362;27;97921;-71
2024/03/13 05:18:19;;;;;;;;;;;;;;;10.97;50.05;100738.97;4984637;27;99285;-71
2024/03/13 05:20:46;;;;;;;;;;;;;;;10.97;50.21;100748.94;4983027;27;97975;-70
2024/03/13 05:23:12;;;;;;;;;;;;;;;10.97;50.43;100748.94;4986898;27;98378;-72
2024/03/13 05:25:39;;;;;;;;;;;;;;;10.95;50.09;100757.28;4968816;27;98030;-71
2024/03/13 05:28:05;;;;;;;;;;;;;;;10.95;50.15;100757.28;4994762;27;99195;-72
2024/03/13 05:30:32;;;;;;;;;;;;;;;10.94;49.99;100755.66;4971715;27;99172;-72
2024/03/13 05:32:58;;;;;;;;;;;;;;;10.94;50.35;100752.16;4972609;27;98232;-71
2024/03/13 05:35:25;;;;;;;;;;;;;;;10.94;50.27;100757.56;4963019;27;101831;-72
2024/03/13 05:37:51;;;;;;;;;;;;;;;10.93;50.00;100758.63;4966572;27;98086;-72
2024/03/13 05:40:19;;;;;;;;;;;;;;;10.93;50.31;100755.94;4969209;27;98178;-72
2024/03/13 05:42:45;;;;;;;;;;;;;;;10.92;50.33;100762.38;4964040;27;98820;-72
2024/03/13 05:45:13;;;;;;;;;;;;;;;10.92;50.13;100762.38;4975887;27;98091;-70
2024/03/13 05:47:42;;;;;;;;;;;;;;;10.92;50.04;100762.38;4959816;27;99352;-73
2024/03/13 05:50:12;;;;;;;;;;;;;;;10.91;49.97;100763.47;4964855;27;98392;-70
2024/03/13 05:52:39;;;;;;;;;;;;;;;10.91;50.04;100761.59;4979858;27;98465;-70
2024/03/13 05:55:06;;;;;;;;;;;;;;;10.93;50.27;100774.81;4968973;27;98039;-69
2024/03/13 05:57:33;;;;;;;;;;;;;;;10.93;50.07;100764.84;4940897;27;98469;-72
2024/03/13 06:00:03;;;;;;;;;;;;;;;10.94;50.07;100769.16;4960903;27;102765;-72
2024/03/13 06:02:30;;;;;;;;;;;;;;;10.95;49.92;100765.38;4971728;27;100974;-71
2024/03/13 06:05:09;;;;;;;;;;;;;;;10.98;49.91;100762.16;4990960;27;98781;-70
2024/03/13 06:07:35;;;;;;;;;;;;;;;11.02;50.00;100757.06;4982850;27;99442;-70
2024/03/13 06:10:05;;;;;;;;;;;;;;;11.06;49.87;100764.34;4979312;27;98176;-72
2024/03/13 06:12:33;;;;;;;;;;;;;;;11.09;49.99;100760.31;4979748;27;98299;-70
2024/03/13 06:15:06;;;;;;;;;;;;;;;11.16;49.97;100762.75;4982638;27;98683;-71
2024/03/13 06:17:33;;;;;;;;;;;;;;;11.19;49.81;100762.25;4982771;27;97779;-70
2024/03/13 06:20:00;;;;;;;;;;;;;;;11.24;49.85;100759.59;4979769;27;98893;-71
2024/03/13 06:22:27;;;;;;;;;;;;;;;11.29;49.91;100767.69;4963681;27;99208;-72
2024/03/13 06:24:55;;;;;;;;;;;;;;;11.34;49.84;100766.88;4988480;27;98468;-71
2024/03/13 06:27:27;;;;;;;;;;;;;;;11.40;49.81;100765.84;5001885;27;98542;-71
2024/03/13 06:29:58;;;;;;;;;;;;;;;11.46;49.88;100775.56;4967606;27;98860;-72
2024/03/13 06:32:25;;;;;;;;;;;;;;;11.51;49.64;100772.88;4961065;27;98198;-71
2024/03/13 06:34:54;;;;;;;;;;;;;;;11.57;49.56;100768.31;4961744;27;98064;-71
2024/03/13 06:37:27;;;;;;;;;;;;;;;11.64;49.64;100772.38;4994944;27;98198;-72
2024/03/13 06:39:53;;;;;;;;;;;;;;;11.72;49.53;100768.34;4994239;27;98533;-71
2024/03/13 06:42:19;;;;;;;;;;;;;;;11.82;49.48;100772.94;4977080;27;98488;-71
2024/03/13 06:44:47;;;;;;;;;;;;;;;11.88;49.42;100775.41;4984601;27;98186;-70
2024/03/13 06:47:13;;;;;;;;;;;;;;;11.95;49.53;100775.97;4985471;27;98302;-72
2024/03/13 06:49:39;;;;;;;;;;;;;;;12.05;49.43;100780.56;5001165;27;98115;-73
2024/03/13 06:52:07;;;;;;;;;;;;;;;12.15;49.31;100782.47;4984049;27;98126;-73
2024/03/13 06:54:36;;;;;;;;;;;;;;;12.23;49.44;100782.75;4983277;27;100503;-73
2024/03/13 06:57:02;;;;;;;;;;;;;;;12.32;49.17;100782.19;4966391;27;98369;-71
2024/03/13 06:59:28;;;;;;;;;;;;;;;12.41;49.11;100783.25;4961897;27;99033;-71
2024/03/13 07:01:55;;;;;;;;;;;;;;;12.52;49.11;100782.97;4967866;27;98112;-72
2024/03/13 07:04:22;;;;;;;;;;;;;;;12.63;49.25;100783.78;4966072;27;97911;-73
2024/03/13 07:06:56;;;;;;;;;;;;;;;12.73;49.01;100782.94;4990419;27;98301;-72
2024/03/13 07:09:24;;;;;;;;;;;;;;;12.85;48.85;100791.59;4966450;27;98173;-73
2024/03/13 07:11:51;;;;;;;;;;;;;;;12.96;49.06;100786.94;4985338;27;98245;-72
2024/03/13 07:14:18;;;;;;;;;;;;;;;13.08;49.04;100790.16;4987533;27;97974;-71
2024/03/13 07:16:45;;;;;;;;;;;;;;;13.19;48.66;100780.09;5003394;27;98059;-71
2024/03/13 07:19:11;;;;;;;;;;;;;;;13.31;48.76;100785.22;4983699;27;98914;-72
2024/03/13 07:21:38;;;;;;;;;;;;;;;13.44;48.99;100790.03;4985972;27;98458;-71
2024/03/13 07:24:05;;;;;;;;;;;;;;;13.56;48.99;100793.25;4979433;27;98636;-71
2024/03/13 07:26:33;;;;;;;;;;;;;;;13.70;48.51;100794.22;4983953;27;101896;-72
2024/03/13 07:29:01;;;;;;;;;;;;;;;13.84;48.72;100788.19;4986522;27;98115;-73
2024/03/13 07:31:30;;;;;;;;;;;;;;;13.98;48.68;100789.16;4981127;27;98537;-71
2024/03/13 07:33:59;;;;;;;;;;;;;;;14.16;48.48;100787.69;4968210;27;101340;-72
2024/03/13 07:36:25;;;;;;;;;;;;;;;14.34;48.48;100789.69;4968586;27;99314;-73
2024/03/13 07:38:53;;;;;;;;;;;;;;;14.54;48.37;100791.47;4987617;27;98071;-71
2024/03/13 07:41:19;;;;;;;;;;;;;;;14.78;48.07;100787.97;4981327;27;98738;-72
2024/03/13 07:43:46;;;;;;;;;;;;;;;15.01;47.84;100791.78;4962086;27;98045;-73
2024/03/13 07:46:13;;;;;;;;;;;;;;;15.26;47.87;100798.84;4996537;27;99064;-73
2024/03/13 07:48:39;;;;;;;;;;;;;;;15.53;47.83;100795.50;4968270;27;98300;-71
2024/03/13 07:51:11;;;;;;;;;;;;;;;15.85;47.53;100797.53;4965496;27;99125;-71
2024/03/13 07:53:38;;;;;;;;;;;;;;;16.14;47.40;100795.41;4979814;27;98097;-71
2024/03/13 07:56:06;;;;;;;;;;;;;;;16.47;47.21;100803.59;4997596;27;98288;-73
2024/03/13 07:58:32;;;;;;;;;;;;;;;16.83;46.99;100811.97;4971125;27;98065;-73
2024/03/13 08:01:01;;;;;;;;;;;;;;;17.16;46.82;100803.69;4994074;27;98233;-73
2024/03/13 08:03:27;;;;;;;;;;;;;;;17.54;46.68;100806.19;4982741;27;98169;-71
2024/03/13 08:05:55;;;;;;;;;;;;;;;17.97;46.50;100806.63;4970440;27;98679;-73
2024/03/13 08:08:21;;;;;;;;;;;;;;;18.43;46.17;100810.97;4957130;27;97936;-72
2024/03/13 08:10:49;;;;;;;;;;;;;;;18.98;45.84;100805.19;4990741;27;97942;-73
2024/03/13 08:13:16;;;;;;;;;;;;;;;19.75;45.25;100798.28;4968579;27;98132;-71
2024/03/13 08:15:42;;;;;;;;;;;;;;;20.73;44.53;100799.47;4979117;27;98663;-72
2024/03/13 08:18:15;;;;;;;;;;;;;;;22.16;43.66;100798.78;5001734;27;98839;-73
2024/03/13 08:20:51;;;;;;;;;;;;;;;23.60;42.50;100805.91;4971851;27;98306;-71
2024/03/13 08:23:17;;;;;;;;;;;;;;;24.90;42.06;100805.59;4981224;27;99543;-73
2024/03/13 08:25:44;;;;;;;;;;;;;;;26.23;41.41;100817.66;4985265;27;98283;-72
2024/03/13 08:28:10;;;;;;;;;;;;;;;27.57;41.11;100817.56;4983346;27;98893;-73
2024/03/13 08:30:37;;;;;;;;;;;;;;;28.89;40.56;100824.63;4974990;27;100175;-73
2024/03/13 08:33:04;;;;;;;;;;;;;;;30.12;39.85;100821.44;4966365;27;98375;-72
2024/03/13 08:35:32;;;;;;;;;;;;;;;31.34;39.50;100841.88;4965211;27;98103;-74
2024/03/13 08:37:59;;;;;;;;;;;;;;;32.60;39.26;100840.19;4980635;27;97954;-72
2024/03/13 08:40:28;;;;;;;;;;;;;;;33.90;38.84;100836.59;4969226;27;98414;-73
2024/03/13 08:42:55;;;;;;;;;;;;;;;35.18;38.15;100833.13;4966900;27;99802;-72
2024/03/13 08:45:22;;;;;;;;;;;;;;;36.09;38.04;100830.97;4966782;27;98540;-74
2024/03/13 08:47:48;;;;;;;;;;;;;;;36.80;38.24;100829.31;4968112;27;98358;-74
2024/03/13 08:50:15;;;;;;;;;;;;;;;37.37;37.76;100827.03;4981945;27;98179;-72
2024/03/13 08:52:43;;;;;;;;;;;;;;;37.90;38.14;100829.63;4983050;27;97894;-74
2024/03/13 08:55:10;;;;;;;;;;;;;;;38.46;38.34;100823.47;4980913;27;98207;-73
2024/03/13 08:57:37;;;;;;;;;;;;;;;38.94;37.96;100819.47;4991070;27;98066;-73
2024/03/13 09:00:05;;;;;;;;;;;;;;;39.41;37.90;100815.03;4984729;27;98056;-72
2024/03/13 09:02:32;;;;;;;;;;;;;;;39.95;37.80;100819.50;4959095;27;99707;-74
2024/03/13 09:04:59;;;;;;;;;;;;;;;40.57;37.48;100807.41;4980959;27;98361;-72
2024/03/13 09:07:26;;;;;;;;;;;;;;;40.48;37.65;100808.91;4976465;27;98215;-72
2024/03/13 09:09:54;;;;;;;;;;;;;;;39.87;38.37;100804.88;4976475;27;101297;-74
2024/03/13 09:12:20;;;;;;;;;;;;;;;40.49;37.75;100804.84;4980082;27;99672;-74
2024/03/13 09:14:47;;;;;;;;;;;;;;;40.53;37.98;100803.91;4962714;27;98448;-73
2024/03/13 09:17:15;;;;;;;;;;;;;;;40.80;37.84;100791.91;4972636;27;98658;-73
2024/03/13 09:19:41;;;;;;;;;;;;;;;41.13;37.62;100814.72;4975077;27;98114;-73
2024/03/13 09:22:18;;;;;;;;;;;;;;;41.07;37.85;100806.09;4952090;27;100275;-72
2024/03/13 09:24:45;;;;;;;;;;;;;;;40.92;37.88;100802.28;4973016;27;98226;-72
2024/03/13 09:27:13;;;;;;;;;;;;;;;40.42;38.36;100804.34;4960161;27;98491;-73
2024/03/13 09:29:40;;;;;;;;;;;;;;;39.74;39.51;100790.88;4981323;27;98378;-72
2024/03/13 09:32:07;;;;;;;;;;;;;;;38.46;40.80;100798.16;4982537;27;98025;-73
2024/03/13 09:34:35;;;;;;;;;;;;;;;38.08;40.92;100787.66;4968764;27;97960;-73
2024/03/13 09:37:04;;;;;;;;;;;;;;;37.75;41.30;100787.84;4952763;27;98027;-72
2024/03/13 09:39:34;;;;;;;;;;;;;;;36.78;42.15;100784.03;4984498;27;98848;-71
2024/03/13 09:42:01;;;;;;;;;;;;;;;36.80;41.74;100786.41;4979702;27;98205;-73
2024/03/13 09:44:29;;;;;;;;;;;;;;;36.43;42.28;100793.31;4981323;27;99336;-71
2024/03/13 09:46:56;;;;;;;;;;;;;;;36.31;42.25;100794.78;4972390;27;98566;-73
2024/03/13 09:49:22;;;;;;;;;;;;;;;36.24;42.44;100797.78;4963804;27;98338;-74
2024/03/13 09:51:49;;;;;;;;;;;;;;;36.24;42.39;100803.41;4980743;27;97915;-71
2024/03/13 09:54:16;;;;;;;;;;;;;;;36.26;42.24;100801.72;4993932;27;98118;-72
2024/03/13 09:56:43;;;;;;;;;;;;;;;36.32;42.52;100797.19;4973543;27;97883;-71
2024/03/13 09:59:10;;;;;;;;;;;;;;;36.48;42.21;100802.03;4983117;27;98396;-73
2024/03/13 10:01:41;;;;;;;;;;;;;;;36.60;42.17;100797.75;4981722;27;100406;-71
2024/03/13 10:04:12;;;;;;;;;;;;;;;36.79;41.71;100791.25;4979276;27;98259;-71
2024/03/13 10:06:40;;;;;;;;;;;;;;;35.88;43.26;100798.53;4968903;27;98485;-73
2024/03/13 10:09:11;;;;;;;;;;;;;;;35.98;42.74;100791.16;4982178;27;98226;-73
2024/03/13 10:11:40;;;;;;;;;;;;;;;35.26;43.29;100786.97;4981916;27;98108;-73
2024/03/13 10:14:07;;;;;;;;;;;;;;;34.45;43.67;100785.09;4981701;27;98961;-78
2024/03/13 10:16:33;;;;;;;;;;;;;;;34.48;43.29;100783.47;4964622;27;98014;-79
2024/03/13 10:19:00;;;;;;;;;;;;;;;34.39;43.06;100781.22;5006902;27;98010;-77
2024/03/13 10:21:27;;;;;;;;;;;;;;;34.23;43.14;100775.44;4979027;27;98211;-77
2024/03/13 10:23:56;;;;;;;;;;;;;;;33.96;43.46;100779.00;4989774;27;99754;-81
2024/03/13 10:26:22;;;;;;;;;;;;;;;33.99;43.04;100771.78;4973910;27;98224;-76
2024/03/13 10:28:49;;;;;;;;;;;;;;;33.94;43.15;100769.44;4987292;27;102093;-76
2024/03/13 10:31:16;;;;;;;;;;;;;;;33.94;43.30;100772.25;4981677;27;98120;-75
2024/03/13 10:33:42;;;;;;;;;;;;;;;33.93;43.52;100762.28;4988105;27;98099;-75
2024/03/13 10:36:11;;;;;;;;;;;;;;;33.90;43.18;100765.91;4975032;27;100322;-75
2024/03/13 10:38:37;;;;;;;;;;;;;;;33.88;42.92;100763.56;4962595;27;98038;-74
2024/03/13 10:41:05;;;;;;;;;;;;;;;33.86;43.08;100765.97;4975168;27;101028;-77
2024/03/13 10:43:31;;;;;;;;;;;;;;;33.85;43.02;100761.59;4964045;27;98182;-77
2024/03/13 10:45:59;;;;;;;;;;;;;;;33.81;43.11;100749.66;4969262;27;98040;-75
2024/03/13 10:48:25;;;;;;;;;;;;;;;33.81;42.69;100746.09;4999670;27;98041;-77
2024/03/13 10:50:52;;;;;;;;;;;;;;;33.91;42.87;100740.31;4977914;27;98111;-74
2024/03/13 10:53:19;;;;;;;;;;;;;;;34.02;42.38;100745.00;4980847;27;101455;-74
2024/03/13 10:55:48;;;;;;;;;;;;;;;34.09;42.56;100737.31;4974483;27;97937;-76
2024/03/13 10:58:21;;;;;;;;;;;;;;;34.12;42.54;100739.28;4980169;27;98462;-73
2024/03/13 11:00:48;;;;;;;;;;;;;;;34.21;42.19;100730.34;4976504;27;98091;-73
2024/03/13 11:03:14;;;;;;;;;;;;;;;34.29;42.31;100733.81;4978338;27;98250;-75
2024/03/13 11:05:41;;;;;;;;;;;;;;;34.38;42.40;100734.06;4954510;27;98387;-75
2024/03/13 11:08:07;;;;;;;;;;;;;;;34.50;41.97;100732.72;4982731;27;99110;-77
2024/03/13 11:10:36;;;;;;;;;;;;;;;34.59;42.18;100732.97;4976823;27;98221;-76
2024/03/13 11:13:05;;;;;;;;;;;;;;;34.63;41.80;100726.09;4999895;27;99220;-75
2024/03/13 11:15:32;;;;;;;;;;;;;;;34.67;41.97;100731.63;4976384;27;98378;-74
2024/03/13 11:18:01;;;;;;;;;;;;;;;34.71;41.79;100729.56;4975007;27;98323;-76
2024/03/13 11:20:39;;;;;;;;;;;;;;;33.51;43.36;100730.09;4982240;27;98243;-75
2024/03/13 11:23:29;;;;;;;;;;;;;;;33.00;43.03;100715.91;4959091;27;98170;-72
2024/03/13 11:26:01;;;;;;;;;;;;;;;31.81;44.30;100717.97;4980301;27;98195;-74
2024/03/13 11:28:29;;;;;;;;;;;;;;;32.22;43.07;100715.31;4994494;27;98893;-76
2024/03/13 11:30:59;;;;;;;;;;;;;;;31.59;43.69;100713.69;4970015;27;98271;-76
2024/03/13 11:33:26;;;;;;;;;;;;;;;30.56;44.46;100707.94;4981182;27;98748;-74
2024/03/13 11:35:53;;;;;;;;;;;;;;;31.14;43.47;100705.88;4968681;27;98397;-74
2024/03/13 11:38:20;;;;;;;;;;;;;;;30.50;43.97;100712.31;4988899;27;98489;-74
2024/03/13 11:40:46;;;;;;;;;;;;;;;29.61;44.77;100703.00;4968813;27;98281;-74
2024/03/13 11:43:19;;;;;;;;;;;;;;;28.97;45.12;100704.25;4983319;27;98850;-76
2024/03/13 11:45:45;;;;;;;;;;;;;;;28.34;45.14;100695.03;4983148;27;98545;-76
2024/03/13 11:48:18;;;;;;;;;;;;;;;27.73;45.75;100701.09;4987426;27;100712;-73
2024/03/13 11:51:06;;;;;;;;;;;;;;;28.11;44.60;100691.63;4992563;27;98946;-76
2024/03/13 11:53:35;;;;;;;;;;;;;;;28.25;44.41;100691.75;5016242;27;99251;-75
2024/03/13 11:56:13;;;;;;;;;;;;;;;28.01;44.69;100687.56;4970466;27;98192;-75
2024/03/13 11:58:39;;;;;;;;;;;;;;;28.40;44.06;100694.69;4988367;27;98311;-74
2024/03/13 12:01:12;;;;;;;;;;;;;;;28.23;43.81;100685.03;4984984;27;97879;-75
2024/03/13 12:03:47;;;;;;;;;;;;;;;28.57;43.78;100681.00;4985769;27;99508;-76
2024/03/13 12:06:36;;;;;;;;;;;;;;;28.11;44.36;100675.00;4988096;27;98235;-76
2024/03/13 12:09:04;;;;;;;;;;;;;;;28.32;43.57;100685.50;4983043;27;98165;-75
2024/03/13 12:11:31;;;;;;;;;;;;;;;27.97;44.00;100674.88;4998004;27;100435;-75
2024/03/13 12:13:59;;;;;;;;;;;;;;;28.25;43.46;100671.56;4988037;27;98103;-76
2024/03/13 12:16:26;;;;;;;;;;;;;;;28.29;43.39;100670.41;5010491;27;98165;-75
2024/03/13 12:18:53;;;;;;;;;;;;;;;27.74;43.91;100667.50;4978006;27;98246;-75
2024/03/13 12:21:20;;;;;;;;;;;;;;;27.58;43.97;100670.47;4961802;27;98678;-73
2024/03/13 12:23:47;;;;;;;;;;;;;;;27.93;43.51;100651.88;4998907;27;98630;-74
2024/03/13 12:26:13;;;;;;;;;;;;;;;28.00;43.45;100663.03;4979728;27;98063;-74
2024/03/13 12:28:40;;;;;;;;;;;;;;;27.93;43.67;100668.50;4980144;27;98099;-75
2024/03/13 12:31:07;;;;;;;;;;;;;;;27.23;44.40;100659.75;4968208;27;98175;-75
2024/03/13 12:33:36;;;;;;;;;;;;;;;26.63;44.57;100668.78;4973695;27;98079;-73
2024/03/13 12:36:03;;;;;;;;;;;;;;;26.64;44.33;100670.34;4988850;27;98064;-75
2024/03/13 12:38:39;;;;;;;;;;;;;;;26.88;43.93;100660.88;4968424;27;98429;-75
2024/03/13 12:41:07;;;;;;;;;;;;;;;26.95;43.76;100660.16;5001620;27;98396;-75
2024/03/13 12:43:34;;;;;;;;;;;;;;;26.99;43.74;100661.00;4985448;27;99087;-75
2024/03/13 12:46:03;;;;;;;;;;;;;;;26.92;43.83;100664.47;4972032;27;98059;-75
2024/03/13 12:48:33;;;;;;;;;;;;;;;26.90;43.98;100664.03;5002387;27;98563;-75
2024/03/13 12:51:00;;;;;;;;;;;;;;;26.91;43.76;100657.34;4984272;27;98082;-74
2024/03/13 12:53:30;;;;;;;;;;;;;;;26.82;43.83;100656.81;4987596;27;97918;-73
2024/03/13 12:55:57;;;;;;;;;;;;;;;26.73;43.80;100664.59;4965040;27;98552;-75
2024/03/13 12:58:27;;;;;;;;;;;;;;;26.65;44.03;100671.19;4984352;27;98014;-75
2024/03/13 13:00:53;;;;;;;;;;;;;;;26.36;44.37;100673.44;4969022;27;98079;-73